createdAt,value
2022-12-04T00:01:07.240Z,25.80
2022-12-04T00:03:34.697Z,23.88
2022-12-04T00:06:14.881Z,25.02
2022-12-04T00:08:41.999Z,23.20
2022-12-04T00:11:10.450Z,23.30
2022-12-04T00:13:38.250Z,24.38
2022-12-04T00:16:07.283Z,22.77
2022-12-04T00:18:34.828Z,23.83
2022-12-04T00:21:05.837Z,23.55
2022-12-04T00:23:33.850Z,22.38
2022-12-04T00:26:06.095Z,22.15
2022-12-04T00:28:34.156Z,24.35
2022-12-04T00:31:04.295Z,25.40
2022-12-04T00:33:30.871Z,23.13
2022-12-04T00:36:07.339Z,22.20
2022-12-04T00:38:34.516Z,21.23
2022-12-04T00:41:01.073Z,22.77
2022-12-04T00:43:28.643Z,22.40
2022-12-04T00:45:55.874Z,22.15
2022-12-04T00:48:23.129Z,21.70
2022-12-04T00:50:49.724Z,22.23
2022-12-04T00:53:16.397Z,22.30
2022-12-04T00:55:43.839Z,21.55
2022-12-04T00:58:11.039Z,22.67
2022-12-04T01:00:39.995Z,20.92
2022-12-04T01:03:07.513Z,20.70
2022-12-04T01:05:44.932Z,21.42
2022-12-04T01:08:12.947Z,20.90
2022-12-04T01:10:41.634Z,21.85
2022-12-04T01:13:08.684Z,20.83
2022-12-04T01:15:39.244Z,20.73
2022-12-04T01:18:06.213Z,21.98
2022-12-04T01:20:32.980Z,22.48
2022-12-04T01:22:59.495Z,22.05
2022-12-04T01:25:25.956Z,21.83
2022-12-04T01:27:52.434Z,21.75
2022-12-04T01:30:19.230Z,21.45
2022-12-04T01:32:45.767Z,22.67
2022-12-04T01:35:12.402Z,20.98
2022-12-04T01:37:38.888Z,21.73
2022-12-04T01:40:06.382Z,21.58
2022-12-04T01:42:32.822Z,23.38
2022-12-04T01:45:33.895Z,21.23
2022-12-04T01:48:18.768Z,21.92
2022-12-04T01:50:46.908Z,22.88
2022-12-04T01:53:14.281Z,20.58
2022-12-04T01:55:41.670Z,21.55
2022-12-04T01:58:08.659Z,22.48
2022-12-04T02:00:35.171Z,23.98
2022-12-04T02:03:01.769Z,21.02
2022-12-04T02:05:28.324Z,22.95
2022-12-04T02:08:00.263Z,22.20
2022-12-04T02:10:52.175Z,22.92
2022-12-04T02:13:37.902Z,24.40
2022-12-04T02:16:23.101Z,22.52
2022-12-04T02:18:58.854Z,21.48
2022-12-04T02:21:37.691Z,21.98
2022-12-04T02:24:22.532Z,21.75
2022-12-04T02:27:01.712Z,21.95
2022-12-04T02:29:46.488Z,22.02
2022-12-04T02:32:22.348Z,22.55
2022-12-04T02:34:58.961Z,21.90
2022-12-04T02:37:31.738Z,22.60
2022-12-04T02:40:20.722Z,23.42
2022-12-04T02:42:58.132Z,22.55
2022-12-04T02:45:30.159Z,21.75
2022-12-04T02:48:00.928Z,23.50
2022-12-04T02:50:29.935Z,21.48
2022-12-04T02:53:06.022Z,22.20
2022-12-04T02:55:39.146Z,19.80
2022-12-04T02:58:11.928Z,22.25
2022-12-04T03:00:41.456Z,22.70
2022-12-04T03:03:15.246Z,21.30
2022-12-04T03:05:54.812Z,23.27
2022-12-04T03:08:26.796Z,21.33
2022-12-04T03:10:58.010Z,21.85
2022-12-04T03:13:49.549Z,20.20
2022-12-04T03:16:21.520Z,21.33
2022-12-04T03:18:57.668Z,22.48
2022-12-04T03:21:29.876Z,21.88
2022-12-04T03:24:06.573Z,22.27
2022-12-04T03:26:45.442Z,22.38
2022-12-04T03:29:22.427Z,21.40
2022-12-04T03:31:56.165Z,21.67
2022-12-04T03:34:32.282Z,21.42
2022-12-04T03:37:05.601Z,21.92
2022-12-04T03:39:38.693Z,21.45
2022-12-04T03:42:16.084Z,20.70
2022-12-04T03:45:08.404Z,21.90
2022-12-04T03:47:42.467Z,21.05
2022-12-04T03:50:23.190Z,20.35
2022-12-04T03:53:04.062Z,22.55
2022-12-04T03:55:39.180Z,21.17
2022-12-04T03:58:12.758Z,23.02
2022-12-04T04:00:42.742Z,22.02
2022-12-04T04:03:19.132Z,22.58
2022-12-04T04:05:50.439Z,22.77
2022-12-04T04:08:29.451Z,22.15
2022-12-04T04:11:08.343Z,20.98
2022-12-04T04:14:11.805Z,22.35
2022-12-04T04:17:01.650Z,22.60
2022-12-04T04:19:50.436Z,23.02
2022-12-04T04:22:38.226Z,21.40
2022-12-04T04:25:13.246Z,21.27
2022-12-04T04:27:39.920Z,21.75
2022-12-04T04:30:08.028Z,20.77
2022-12-04T04:32:42.580Z,22.98
2022-12-04T04:35:38.173Z,20.52
2022-12-04T04:38:26.389Z,22.10
2022-12-04T04:41:09.422Z,21.88
2022-12-04T04:43:46.273Z,20.58
2022-12-04T04:46:19.732Z,22.27
2022-12-04T04:48:54.357Z,21.42
2022-12-04T04:51:21.040Z,24.27
2022-12-04T04:53:51.529Z,20.63
2022-12-04T04:56:22.335Z,21.00
2022-12-04T04:58:48.874Z,22.77
2022-12-04T05:01:18.778Z,22.33
2022-12-04T05:03:45.632Z,23.70
2022-12-04T05:06:12.205Z,23.55
2022-12-04T05:08:39.127Z,23.55
2022-12-04T05:11:06.536Z,21.83
2022-12-04T05:13:33.027Z,21.50
2022-12-04T05:16:01.996Z,23.08
2022-12-04T05:18:29.117Z,22.85
2022-12-04T05:20:55.853Z,23.85
2022-12-04T05:23:23.344Z,22.08
2022-12-04T05:25:50.051Z,22.27
2022-12-04T05:28:16.625Z,23.77
2022-12-04T05:30:43.226Z,22.55
2022-12-04T05:33:10.614Z,22.42
2022-12-04T05:35:37.053Z,21.98
2022-12-04T05:38:03.568Z,22.67
2022-12-04T05:40:29.983Z,22.85
2022-12-04T05:42:57.134Z,24.33
2022-12-04T05:45:24.553Z,22.45
2022-12-04T05:47:51.409Z,23.27
2022-12-04T05:50:17.945Z,20.73
2022-12-04T05:52:44.407Z,23.42
2022-12-04T05:55:10.828Z,23.25
2022-12-04T05:57:37.250Z,22.65
2022-12-04T06:00:05.093Z,22.83
2022-12-04T06:02:37.860Z,22.75
2022-12-04T06:05:04.906Z,23.77
2022-12-04T06:07:31.418Z,21.50
2022-12-04T06:09:58.219Z,22.05
2022-12-04T06:12:24.931Z,23.02
2022-12-04T06:14:51.349Z,22.65
2022-12-04T06:17:17.786Z,23.45
2022-12-04T06:19:44.227Z,24.02
2022-12-04T06:22:10.763Z,22.70
2022-12-04T06:24:37.260Z,22.83
2022-12-04T06:27:26.711Z,24.00
2022-12-04T06:29:50.346Z,22.73
2022-12-04T06:32:21.431Z,23.15
2022-12-04T06:34:55.230Z,25.02
2022-12-04T06:37:24.323Z,23.80
2022-12-04T06:39:50.884Z,23.98
2022-12-04T06:42:17.392Z,24.95
2022-12-04T06:44:43.780Z,24.70
2022-12-04T06:47:10.255Z,23.08
2022-12-04T06:49:36.740Z,24.55
2022-12-04T06:52:03.766Z,24.35
2022-12-04T06:54:30.195Z,21.77
2022-12-04T06:56:56.734Z,24.02
2022-12-04T06:59:23.735Z,24.13
2022-12-04T07:01:50.609Z,23.80
2022-12-04T07:04:17.209Z,24.15
2022-12-04T07:06:43.644Z,24.45
2022-12-04T07:09:15.279Z,23.95
2022-12-04T07:11:42.803Z,24.65
2022-12-04T07:14:10.217Z,25.90
2022-12-04T07:16:41.044Z,23.80
2022-12-04T07:19:09.954Z,24.83
2022-12-04T07:21:36.681Z,22.33
2022-12-04T07:24:03.379Z,23.75
2022-12-04T07:26:31.008Z,23.95
2022-12-04T07:28:58.331Z,25.48
2022-12-04T07:31:26.531Z,26.58
2022-12-04T07:33:54.330Z,23.80
2022-12-04T07:36:22.479Z,24.25
2022-12-04T07:38:49.789Z,25.35
2022-12-04T07:41:17.089Z,23.13
2022-12-04T07:43:43.960Z,24.33
2022-12-04T07:46:16.546Z,25.73
2022-12-04T07:48:43.924Z,24.25
2022-12-04T07:51:16.762Z,23.90
2022-12-04T07:53:44.044Z,27.40
2022-12-04T07:56:12.079Z,24.90
2022-12-04T07:58:39.430Z,26.95
2022-12-04T08:01:07.160Z,25.67
2022-12-04T08:03:33.670Z,25.60
2022-12-04T08:06:01.566Z,24.98
2022-12-04T08:08:28.496Z,26.02
2022-12-04T08:10:55.079Z,24.92
2022-12-04T08:13:21.844Z,26.92
2022-12-04T08:15:48.325Z,24.42
2022-12-04T08:18:14.912Z,25.48
2022-12-04T08:20:41.434Z,22.73
2022-12-04T08:23:08.015Z,24.77
2022-12-04T08:25:34.640Z,24.63
2022-12-04T08:28:01.116Z,26.02
2022-12-04T08:30:27.585Z,24.48
2022-12-04T08:32:53.992Z,25.10
2022-12-04T08:35:20.557Z,25.23
2022-12-04T08:37:47.100Z,25.20
2022-12-04T08:40:14.024Z,25.40
2022-12-04T08:42:40.427Z,27.17
2022-12-04T08:45:07.509Z,25.88
2022-12-04T08:47:33.921Z,25.55
2022-12-04T08:50:00.346Z,25.88
2022-12-04T08:52:26.781Z,25.30
2022-12-04T08:54:53.169Z,24.75
2022-12-04T08:57:19.607Z,25.55
2022-12-04T08:59:46.043Z,25.13
2022-12-04T09:02:13.120Z,25.15
2022-12-04T09:04:39.627Z,27.50
2022-12-04T09:07:06.164Z,26.25
2022-12-04T09:09:32.757Z,24.52
2022-12-04T09:11:59.322Z,24.52
2022-12-04T09:14:26.507Z,23.90
2022-12-04T09:16:53.637Z,26.85
2022-12-04T09:19:20.911Z,24.10
2022-12-04T09:21:47.798Z,23.95
2022-12-04T09:24:14.635Z,24.38
2022-12-04T09:26:42.142Z,25.08
2022-12-04T09:29:08.636Z,22.90
2022-12-04T09:31:35.298Z,24.35
2022-12-04T09:34:02.028Z,23.50
2022-12-04T09:36:29.405Z,23.83
2022-12-04T09:38:55.882Z,24.48
2022-12-04T09:42:16.535Z,24.25
2022-12-04T09:45:02.187Z,25.65
2022-12-04T09:47:36.473Z,25.52
2022-12-04T09:50:21.666Z,24.17
2022-12-04T09:53:10.071Z,23.08
2022-12-04T09:55:42.294Z,24.33
2022-12-04T09:58:14.853Z,24.38
2022-12-04T10:00:44.060Z,22.42
2022-12-04T10:03:17.042Z,25.27
2022-12-04T10:06:06.432Z,23.50
2022-12-04T10:08:42.245Z,23.85
2022-12-04T10:11:21.357Z,24.48
2022-12-04T10:14:04.334Z,23.67
2022-12-04T10:16:54.321Z,22.15
2022-12-04T10:19:39.519Z,23.15
2022-12-04T10:22:44.025Z,22.90
2022-12-04T10:25:21.987Z,20.40
2022-12-04T10:27:58.055Z,22.10
2022-12-04T10:30:32.135Z,22.25
2022-12-04T10:33:04.903Z,23.30
2022-12-04T10:35:35.174Z,20.90
2022-12-04T10:38:06.796Z,23.02
2022-12-04T10:40:41.599Z,22.17
2022-12-04T10:43:22.984Z,21.30
2022-12-04T10:45:49.717Z,24.17
2022-12-04T10:48:38.723Z,22.42
2022-12-04T10:51:05.464Z,21.80
2022-12-04T10:53:35.930Z,21.58
2022-12-04T10:56:10.545Z,20.90
2022-12-04T10:58:37.486Z,21.77
2022-12-04T11:01:10.566Z,21.77
2022-12-04T11:03:37.433Z,20.90
2022-12-04T11:06:06.539Z,22.95
2022-12-04T11:08:38.355Z,22.35
2022-12-04T11:11:08.538Z,22.52
2022-12-04T11:13:35.030Z,22.98
2022-12-04T11:16:01.689Z,21.75
2022-12-04T11:18:48.693Z,21.38
2022-12-04T11:21:18.907Z,23.63
2022-12-04T11:23:49.629Z,22.83
2022-12-04T11:26:28.320Z,22.25
2022-12-04T11:28:55.497Z,22.52
2022-12-04T11:31:23.109Z,21.58
2022-12-04T11:33:56.635Z,22.42
2022-12-04T11:36:35.503Z,22.33
2022-12-04T11:39:18.891Z,22.90
2022-12-04T11:41:45.470Z,23.15
2022-12-04T11:44:24.786Z,22.65
2022-12-04T11:46:54.590Z,20.98
2022-12-04T11:49:26.467Z,22.88
2022-12-04T11:52:15.219Z,20.90
2022-12-04T11:54:56.780Z,21.92
2022-12-04T11:58:04.328Z,20.23
2022-12-04T12:00:36.799Z,23.23
2022-12-04T12:03:16.165Z,21.88
2022-12-04T12:06:18.618Z,21.02
2022-12-04T12:08:59.586Z,21.38
2022-12-04T12:11:44.572Z,21.90
2022-12-04T12:14:45.179Z,21.13
2022-12-04T12:17:41.722Z,19.98
2022-12-04T12:22:51.522Z,19.40
2022-12-04T12:25:52.797Z,19.70
2022-12-04T12:28:38.619Z,20.30
2022-12-04T12:31:28.635Z,22.70
2022-12-04T12:34:01.588Z,21.58
2022-12-04T12:36:33.856Z,20.67
2022-12-04T12:39:15.636Z,21.33
2022-12-04T12:41:47.934Z,21.30
2022-12-04T12:44:21.607Z,22.50
2022-12-04T12:46:56.457Z,22.98
2022-12-04T12:49:33.656Z,21.88
2022-12-04T12:52:30.228Z,20.65
2022-12-04T12:55:23.203Z,19.80
2022-12-04T12:58:10.465Z,19.45
2022-12-04T13:00:43.508Z,20.60
2022-12-04T13:03:37.570Z,19.88
2022-12-04T13:06:09.334Z,17.35
2022-12-04T13:08:43.592Z,19.30
2022-12-04T13:11:21.584Z,20.33
2022-12-04T13:13:53.183Z,19.63
2022-12-04T13:16:24.342Z,19.92
2022-12-04T13:19:22.508Z,19.52
2022-12-04T13:22:18.185Z,19.60
2022-12-04T13:25:08.810Z,18.50
2022-12-04T13:28:14.734Z,20.35
2022-12-04T13:30:57.042Z,19.47
2022-12-04T13:33:54.600Z,18.60
2022-12-04T13:36:29.231Z,18.13
2022-12-04T13:39:14.280Z,17.90
2022-12-04T13:41:40.773Z,17.20
2022-12-04T13:44:20.491Z,17.23
2022-12-04T13:46:57.454Z,17.85
2022-12-04T13:49:27.910Z,17.58
2022-12-04T13:51:56.312Z,18.08
2022-12-04T13:54:29.820Z,18.90
2022-12-04T13:57:10.628Z,17.58
2022-12-04T13:59:39.787Z,15.98
2022-12-04T14:02:47.530Z,17.73
2022-12-04T14:05:14.461Z,18.30
2022-12-04T14:08:18.489Z,17.85
2022-12-04T14:11:05.975Z,16.10
2022-12-04T14:13:44.807Z,16.38
2022-12-04T14:16:20.991Z,17.73
2022-12-04T14:18:53.651Z,18.88
2022-12-04T14:21:26.431Z,17.48
2022-12-04T14:23:53.454Z,19.02
2022-12-04T14:26:21.488Z,18.45
2022-12-04T14:28:48.941Z,19.58
2022-12-04T14:31:59.227Z,19.58
2022-12-04T14:34:40.769Z,19.20
2022-12-04T14:37:43.786Z,19.60
2022-12-04T14:40:42.151Z,19.27
2022-12-04T14:43:31.987Z,20.83
2022-12-04T14:49:00.365Z,19.08
2022-12-04T14:51:38.447Z,19.33
2022-12-04T14:54:15.000Z,21.05
2022-12-04T14:57:10.966Z,19.65
2022-12-04T15:00:31.521Z,22.25
2022-12-04T15:03:33.371Z,20.70
2022-12-04T15:08:33.838Z,20.90
2022-12-04T15:11:22.512Z,21.10
2022-12-04T15:13:50.353Z,20.52
2022-12-04T15:16:20.047Z,22.55
2022-12-04T15:18:59.641Z,23.75
2022-12-04T15:21:39.684Z,23.30
2022-12-04T15:24:26.400Z,23.15
2022-12-04T15:26:54.156Z,22.73
2022-12-04T15:29:27.948Z,22.65
2022-12-04T15:32:00.265Z,23.20
2022-12-04T15:34:38.209Z,24.48
2022-12-04T15:37:08.867Z,22.05
2022-12-04T15:39:38.127Z,24.10
2022-12-04T15:43:09.517Z,23.40
2022-12-04T15:45:35.789Z,24.40
2022-12-04T15:48:04.180Z,23.10
2022-12-04T15:50:35.651Z,21.83
2022-12-04T15:53:06.372Z,23.38
2022-12-04T15:55:48.206Z,20.70
2022-12-04T15:58:29.383Z,22.52
2022-12-04T16:01:05.368Z,23.52
2022-12-04T16:03:41.687Z,23.00
2022-12-04T16:06:21.135Z,23.65
2022-12-04T16:09:21.789Z,24.73
2022-12-04T16:12:03.074Z,21.17
2022-12-04T16:14:30.319Z,21.40
2022-12-04T16:17:05.930Z,22.55
2022-12-04T16:22:14.726Z,20.77
2022-12-04T16:24:44.878Z,22.05
2022-12-04T16:27:15.913Z,22.63
2022-12-04T16:29:42.995Z,21.80
2022-12-04T16:32:14.680Z,22.67
2022-12-04T16:34:41.820Z,21.33
2022-12-04T16:37:17.610Z,22.30
2022-12-04T16:39:47.063Z,22.63
2022-12-04T16:42:25.299Z,22.85
2022-12-04T16:44:52.923Z,22.95
2022-12-04T16:47:21.120Z,20.95
2022-12-04T16:49:50.509Z,22.23
2022-12-04T16:52:19.710Z,21.30
2022-12-04T16:54:47.037Z,22.60
2022-12-04T16:57:14.145Z,22.15
2022-12-04T16:59:42.555Z,21.77
2022-12-04T17:02:17.551Z,22.90
2022-12-04T17:04:46.022Z,23.13
2022-12-04T17:07:14.117Z,21.95
2022-12-04T17:09:40.944Z,22.05
2022-12-04T17:12:09.142Z,22.27
2022-12-04T17:14:36.092Z,20.88
2022-12-04T17:17:04.858Z,24.08
2022-12-04T17:19:31.763Z,22.02
2022-12-04T17:22:23.360Z,20.73
2022-12-04T17:24:55.971Z,22.27
2022-12-04T17:30:20.450Z,21.40
2022-12-04T17:32:51.450Z,21.95
2022-12-04T17:35:23.276Z,21.00
2022-12-04T17:38:05.329Z,20.83
2022-12-04T17:40:33.089Z,21.73
2022-12-04T17:42:59.925Z,21.80
2022-12-04T17:45:28.655Z,21.95
2022-12-04T17:47:55.818Z,20.25
2022-12-04T17:50:23.086Z,20.50
2022-12-04T17:52:50.048Z,20.48
2022-12-04T17:55:17.162Z,20.35
2022-12-04T17:57:44.131Z,19.08
2022-12-04T18:00:11.383Z,21.02
2022-12-04T18:02:48.714Z,18.75
2022-12-04T18:05:18.404Z,18.98
2022-12-04T18:07:50.541Z,17.60
2022-12-04T18:10:30.642Z,19.60
2022-12-04T18:22:18.839Z,17.25
2022-12-04T18:24:53.453Z,18.08
2022-12-04T18:27:23.759Z,17.38
2022-12-04T18:29:57.420Z,19.77
2022-12-04T18:32:34.865Z,18.40
2022-12-04T18:37:48.587Z,17.55
2022-12-04T18:40:16.109Z,16.83
2022-12-04T18:42:43.767Z,17.52
2022-12-04T18:45:11.178Z,17.52
2022-12-04T18:47:38.054Z,18.13
2022-12-04T18:50:05.203Z,16.73
2022-12-04T18:52:36.906Z,17.27
2022-12-04T18:55:03.915Z,16.88
2022-12-04T18:57:31.772Z,15.85
2022-12-04T18:59:59.222Z,17.27
2022-12-04T19:02:28.071Z,16.48
2022-12-04T19:04:56.149Z,18.80
2022-12-04T19:07:22.882Z,18.13
2022-12-04T19:12:36.789Z,16.88
2022-12-04T19:15:04.050Z,17.92
2022-12-04T19:17:31.098Z,17.65
2022-12-04T19:19:59.773Z,17.55
2022-12-04T19:22:26.381Z,19.13
2022-12-04T19:24:53.369Z,19.00
2022-12-04T19:27:20.513Z,18.30
2022-12-04T19:29:48.100Z,17.73
2022-12-04T19:32:15.131Z,18.35
2022-12-04T19:34:43.048Z,17.40
2022-12-04T19:37:09.949Z,18.42
2022-12-04T19:39:40.111Z,17.90
2022-12-04T19:42:07.669Z,18.75
2022-12-04T19:44:50.706Z,18.38
2022-12-04T19:47:18.858Z,19.48
2022-12-04T19:49:46.888Z,17.77
2022-12-04T19:52:13.690Z,17.55
2022-12-04T19:54:40.739Z,17.00
2022-12-04T19:57:08.160Z,17.92
2022-12-04T19:59:38.563Z,18.42
2022-12-04T20:02:08.728Z,16.95
2022-12-04T20:04:35.359Z,17.70
2022-12-04T20:07:01.994Z,16.75
2022-12-04T20:09:28.697Z,16.35
2022-12-04T20:11:55.545Z,16.27
2022-12-04T20:14:22.843Z,16.02
2022-12-04T20:16:50.486Z,17.85
2022-12-04T20:19:20.679Z,17.42
2022-12-04T20:21:47.921Z,17.10
2022-12-04T20:24:16.891Z,17.10
2022-12-04T20:26:47.255Z,17.98
2022-12-04T20:29:17.519Z,17.02
2022-12-04T20:31:45.941Z,19.45
2022-12-04T20:34:17.126Z,17.67
2022-12-04T20:36:45.782Z,16.33
2022-12-04T20:39:15.056Z,16.92
2022-12-04T20:41:42.864Z,17.17
2022-12-04T20:44:13.344Z,16.65
2022-12-04T20:46:42.935Z,17.20
2022-12-04T20:49:21.632Z,17.63
2022-12-04T20:51:49.243Z,17.67
2022-12-04T20:54:20.286Z,17.10
2022-12-04T20:56:48.916Z,17.75
2022-12-04T20:59:21.718Z,16.95
2022-12-04T21:01:49.455Z,15.57
2022-12-04T21:04:18.056Z,16.70
2022-12-04T21:06:47.069Z,17.83
2022-12-04T21:09:24.323Z,18.38
2022-12-04T21:11:54.684Z,17.60
2022-12-04T21:14:46.442Z,16.35
2022-12-04T21:17:18.505Z,17.35
2022-12-04T21:19:46.913Z,17.60
2022-12-04T21:22:15.490Z,17.60
2022-12-04T21:24:42.298Z,16.52
2022-12-04T21:27:14.404Z,17.73
2022-12-04T21:29:45.438Z,16.88
2022-12-04T21:32:12.159Z,17.80
2022-12-04T21:34:39.906Z,17.40
2022-12-04T21:37:06.726Z,18.65
2022-12-04T21:39:33.509Z,18.92
2022-12-04T21:42:21.297Z,18.77
2022-12-04T21:44:47.899Z,19.08
2022-12-04T21:47:40.223Z,19.90
2022-12-04T21:50:08.427Z,19.67
2022-12-04T21:52:35.246Z,19.33
2022-12-04T21:55:02.138Z,19.92
2022-12-04T21:57:30.201Z,20.55
2022-12-04T22:00:04.115Z,19.35
2022-12-04T22:02:32.623Z,20.48
2022-12-04T22:05:01.672Z,20.48
2022-12-04T22:07:30.625Z,20.00
2022-12-04T22:09:57.878Z,20.25
2022-12-04T22:12:48.599Z,20.13
2022-12-04T22:15:17.633Z,22.27
2022-12-04T22:17:45.707Z,35.35
2022-12-04T22:20:19.857Z,27.45
2022-12-04T22:22:46.752Z,20.75
2022-12-04T22:25:14.655Z,19.70
2022-12-04T22:27:41.502Z,18.95
2022-12-04T22:30:08.803Z,19.90
2022-12-04T22:32:35.645Z,19.08
2022-12-04T22:35:03.528Z,19.25
2022-12-04T22:37:30.177Z,18.98
2022-12-04T22:39:57.183Z,19.65
2022-12-04T22:42:27.481Z,18.95
2022-12-04T22:44:54.065Z,19.35
2022-12-04T22:47:20.793Z,19.85
2022-12-04T22:49:47.545Z,17.98
2022-12-04T22:52:39.144Z,20.00
2022-12-04T22:55:09.540Z,19.25
2022-12-04T22:57:38.370Z,18.88
2022-12-04T23:00:06.823Z,19.60
2022-12-04T23:02:33.756Z,19.08
2022-12-04T23:05:02.269Z,19.70
2022-12-04T23:07:30.949Z,18.42
2022-12-04T23:09:57.852Z,19.92
2022-12-04T23:12:29.532Z,18.85
2022-12-04T23:14:56.220Z,20.23
2022-12-04T23:17:23.311Z,19.13
2022-12-04T23:19:54.910Z,18.75
2022-12-04T23:22:24.888Z,18.90
2022-12-04T23:24:51.477Z,20.48
2022-12-04T23:27:19.330Z,17.80
2022-12-04T23:29:54.203Z,19.08
2022-12-04T23:32:20.894Z,18.33
2022-12-04T23:34:47.362Z,17.20
2022-12-04T23:37:13.867Z,20.33
2022-12-04T23:39:40.303Z,19.50
2022-12-04T23:42:06.776Z,19.08
2022-12-04T23:44:33.306Z,18.27
2022-12-04T23:46:59.805Z,18.50
2022-12-04T23:49:26.290Z,18.25
2022-12-04T23:51:52.769Z,18.88
2022-12-04T23:54:19.212Z,17.85
2022-12-04T23:56:45.718Z,17.48
2022-12-04T23:59:12.121Z,18.40
